Flight Track Log - Related Links

Times and Time Zones

All times are in EDT time to prevent confusion due to time zone crossing. See the AAL1482 flight status page for this flight to view local times or setup timezone preferences in your user account.

Time Position Orientation Groundspeed Altitude Reporting Facility
EDT Latitude Longitude Course Direction KTS MPH feet Rate Location/Type
Mon 08:33:21 PM 36.0761 -115.1683 84° East 174 200 3,100  Level Los Angeles Center
Mon 08:34:34 PM 36.0667 -115.2539 262° West 238 274 5,300 1,730 Climbing Los Angeles Center
Mon 08:35:00 PM 35.8836 -115.2644 161° South  Level FlightAware Approximate
Mon 08:35:12 PM 36.0394 -115.2733 210° Southwest 252 290 6,300  Level Los Angeles Center
Mon 08:35:29 PM 36.0089 -115.2861 199° South 265 305 6,900 871 Climbing Los Angeles Center
Mon 08:36:00 PM 35.8299 -115.1395 103° East  Level FlightAware Approximate
Mon 08:36:14 PM 35.9500 -115.2956 187° South 271 312 7,200  Level Los Angeles Center
Mon 08:36:36 PM 35.9172 -115.2817 161° South 313 360 8,700 3,738 Climbing Los Angeles Center
Mon 08:37:00 PM 35.8241 -114.9848 84° East  Level FlightAware Approximate
Mon 08:37:15 PM 35.8694 -115.2544 155° Southeast 297 342 11,000  Level Los Angeles Center
Mon 08:37:31 PM 35.8578 -115.2267 117° Southeast 311 358 11,400 1,839 Climbing Los Angeles Center
Mon 08:38:00 PM 35.8365 -114.8286 84° East  Level FlightAware Approximate
Mon 08:38:17 PM 35.8381 -115.1444 106° East 341 392 12,900  Level Los Angeles Center
Mon 08:38:38 PM 35.8267 -115.0936 105° East 374 430 14,100 2,806 Climbing Los Angeles Center
Mon 08:39:19 PM 35.8256 -115.0150 91° East 377 434 15,800 2,852 Climbing Los Angeles Center
Mon 08:39:39 PM 35.8311 -114.9569 83° East 397 457 17,000 2,710 Climbing Los Angeles Center
Mon 08:40:21 PM 35.8389 -114.8797 83° East 396 456 18,600 2,365 Climbing Los Angeles Center
Mon 08:41:23 PM 35.8522 -114.7353 83° East 416 479 21,100 2,323 Climbing Los Angeles Center
Mon 08:42:25 PM 35.8653 -114.5864 84° East 431 496 23,400 2,323 Climbing Los Angeles Center
Mon 08:43:27 PM 35.8814 -114.3986 84° East 452 520 25,900 2,146 Climbing Los Angeles Center
Mon 08:44:28 PM 35.8953 -114.2364 84° East 470 541 27,800 1,854 Climbing Los Angeles Center
Mon 08:45:30 PM 35.9086 -114.0700 84° East 482 555 29,700 1,790 Climbing Los Angeles Center
Mon 08:46:32 PM 35.9214 -113.9003 85° East 493 567 31,500 1,839 Climbing Los Angeles Center
Mon 08:47:34 PM 35.8967 -113.7328 100° East 494 568 33,500 1,984 Climbing Los Angeles Center
Mon 08:48:36 PM 35.8667 -113.5467 101° East 495 570 35,600 1,854 Climbing Los Angeles Center
Mon 08:49:37 PM 35.8400 -113.3828 101° East 491 565 37,300 1,317 Climbing Los Angeles Center
Mon 08:50:39 PM 35.8144 -113.2214 101° East 483 556 38,300 919 Climbing Los Angeles Center
Mon 08:51:41 PM 35.7881 -113.0556 101° East 490 564 39,200 677 Climbing Los Angeles Center
Mon 08:52:43 PM 35.7611 -112.8886 101° East 495 570 39,700 585 Climbing Los Angeles Center
Mon 08:53:44 PM 35.7333 -112.7181 101° East 504 580 40,400 585 Climbing Los Angeles Center
Mon 08:54:46 PM 35.7039 -112.5478 102° East 507 583 40,900 290 Climbing Los Angeles Center
Mon 08:55:48 PM 35.6700 -112.3414 101° East 512 589 41,000 48 Climbing Los Angeles Center
Mon 08:56:50 PM 35.6392 -112.1692 102° East 516 594 41,000  Level Los Angeles Center
Mon 08:57:43 PM 35.6156 -112.0339 102° East 513 590 41,000  Level Albuquerque Center
Mon 08:58:45 PM 35.5892 -111.8636 101° East 512 589 41,000  Level Albuquerque Center
Mon 08:59:46 PM 35.5856 -111.6928 91° East 504 580 41,000  Level Albuquerque Center
Mon 09:00:48 PM 35.5800 -111.4906 92° East 499 574 41,000  Level Albuquerque Center
Mon 09:01:49 PM 35.5756 -111.3114 92° East 499 574 41,000  Level Albuquerque Center
Mon 09:02:51 PM 35.5700 -111.1472 92° East 502 578 41,000  Level Albuquerque Center
Mon 09:03:52 PM 35.5642 -110.9808 92° East 507 583 41,000  Level Albuquerque Center
Mon 09:04:54 PM 35.5578 -110.7869 92° East 510 587 41,000  Level Albuquerque Center
Mon 09:05:56 PM 35.5519 -110.6192 92° East 512 589 41,000  Level Albuquerque Center
Mon 09:06:57 PM 35.5447 -110.4236 93° East 513 590 41,000  Level Albuquerque Center
Mon 09:07:59 PM 35.5375 -110.2547 93° East 516 594 41,000  Level Albuquerque Center
Mon 09:09:00 PM 35.5317 -110.0594 92° East 515 593 41,000  Level Albuquerque Center
Mon 09:10:02 PM 35.5239 -109.8925 93° East 514 592 41,000  Level Albuquerque Center
Mon 09:11:03 PM 35.5175 -109.7239 93° East 516 594 41,000  Level Albuquerque Center
Mon 09:12:04 PM 35.5089 -109.5272 93° East 518 596 41,000  Level Albuquerque Center
Mon 09:13:06 PM 35.5006 -109.3567 93° East 522 601 41,000  Level Albuquerque Center
Mon 09:14:07 PM 35.4914 -109.1622 93° East 518 596 41,000  Level Albuquerque Center
Mon 09:15:09 PM 35.4831 -108.9956 93° East 515 593 41,000  Level Albuquerque Center
Mon 09:16:10 PM 35.4628 -108.8039 97° East 513 590 41,000  Level Albuquerque Center
Mon 09:17:12 PM 35.4317 -108.6436 103° East 510 587 41,000  Level Albuquerque Center
Mon 09:18:13 PM 35.3989 -108.4825 104° East 510 587 41,000  Level Albuquerque Center
Mon 09:19:15 PM 35.3611 -108.2953 104° East 509 586 41,000  Level Albuquerque Center
Mon 09:20:16 PM 35.3281 -108.1356 104° East 508 585 41,000  Level Albuquerque Center
Mon 09:21:17 PM 35.2883 -107.9497 105° East 507 583 41,000  Level Albuquerque Center
Mon 09:22:19 PM 35.2558 -107.7892 104° East 508 585 41,000  Level Albuquerque Center
Mon 09:23:20 PM 35.2211 -107.6289 105° East 510 587 41,000  Level Albuquerque Center
Mon 09:24:21 PM 35.1867 -107.4664 104° East 509 586 41,000  Level Albuquerque Center
Mon 09:25:23 PM 35.1425 -107.2636 105° East 513 590 41,000  Level Albuquerque Center
Mon 09:26:24 PM 35.1072 -107.0892 104° East 518 596 41,000  Level Albuquerque Center
Mon 09:27:26 PM 35.0711 -106.9292 105° East 512 589 41,000  Level Albuquerque Center
Mon 09:28:27 PM 35.0300 -106.7425 105° East 511 588 41,000  Level Albuquerque Center
Mon 09:29:28 PM 35.0133 -106.5744 97° East 514 592 41,000  Level Albuquerque Center
Mon 09:30:30 PM 34.9903 -106.3864 98° East 530 610 41,000  Level Albuquerque Center
Mon 09:31:31 PM 34.9681 -106.2136 99° East 520 598 41,000  Level Albuquerque Center
Mon 09:32:32 PM 34.9469 -106.0394 98° East 519 597 41,000 49 Level Albuquerque Center
Mon 09:33:34 PM 34.9269 -105.8792 99° East 515 593 41,100  Climbing Albuquerque Center
Mon 09:34:35 PM 34.9008 -105.6778 99° East 513 590 41,000 -49 Descending Albuquerque Center
Mon 09:35:36 PM 34.8778 -105.5058 99° East 511 588 41,000  Level Albuquerque Center
Mon 09:36:38 PM 34.8544 -105.3333 99° East 512 589 41,000  Level Albuquerque Center
Mon 09:37:39 PM 34.8306 -105.1614 100° East 512 589 41,000  Level Albuquerque Center
Mon 09:38:40 PM 34.8067 -104.9906 100° East 510 587 41,000  Level Albuquerque Center
Mon 09:39:42 PM 34.7836 -104.8214 99° East 507 583 41,000  Level Albuquerque Center
Mon 09:40:43 PM 34.7600 -104.6519 100° East 506 582 41,000  Level Albuquerque Center
Mon 09:41:44 PM 34.7372 -104.4847 99° East 502 578 41,000  Level Albuquerque Center
Mon 09:42:45 PM 34.7122 -104.3158 100° East 505 581 41,000  Level Albuquerque Center
Mon 09:43:47 PM 34.6892 -104.1456 99° East 509 586 41,000  Level Albuquerque Center
Mon 09:44:48 PM 34.6611 -103.9472 100° East 510 587 41,000  Level Albuquerque Center
Mon 09:45:49 PM 34.6369 -103.7772 100° East 510 587 41,000  Level Albuquerque Center
Mon 09:46:51 PM 34.6117 -103.6025 100° East 518 596 41,000  Level Albuquerque Center
Mon 09:47:52 PM 34.5872 -103.4281 100° East 521 600 41,000  Level Albuquerque Center
Mon 09:48:53 PM 34.5617 -103.2517 100° East 526 605 41,000  Level Albuquerque Center
Mon 09:49:54 PM 34.5336 -103.0731 101° East 533 613 41,000  Level Albuquerque Center
Mon 09:50:56 PM 34.5061 -102.8953 101° East 534 615 41,000  Level Albuquerque Center
Mon 09:51:57 PM 34.4836 -102.7217 99° East 533 613 41,000  Level Albuquerque Center
Mon 09:52:58 PM 34.4658 -102.5433 97° East 536 617 41,000  Level Albuquerque Center
Mon 09:53:59 PM 34.4478 -102.3667 97° East 534 615 41,000  Level Albuquerque Center
Mon 09:55:01 PM 34.4250 -102.1556 97° East 532 612 41,000  Level Albuquerque Center
Mon 09:56:02 PM 34.4061 -101.9792 97° East 531 611 41,000  Level Albuquerque Center
Mon 09:57:03 PM 34.3878 -101.8056 97° East 529 609 41,000  Level Albuquerque Center
Mon 09:58:04 PM 34.3689 -101.6303 97° East 528 608 41,000  Level Albuquerque Center
Mon 09:58:31 PM 34.3594 -101.5467 98° East 521 600 41,000  Level Fort Worth Center
Mon 09:59:31 PM 34.3403 -101.3722 98° East 521 600 41,000  Level Fort Worth Center
Mon 10:02:00 PM 34.3041 -101.0827 99° East  Level FlightAware Approximate
Mon 10:02:09 PM 34.2886 -100.9411 99° East 516 594 41,000  Level Albuquerque Center
Mon 10:02:31 PM 34.2819 -100.8719 97° East 516 594 41,000  Level Fort Worth Center
Mon 10:03:31 PM 34.2617 -100.7003 98° East 516 594 41,000  Level Fort Worth Center
Mon 10:04:31 PM 34.2408 -100.5311 98° East 516 594 41,000  Level Fort Worth Center
Mon 10:05:31 PM 34.2161 -100.3469 99° East 510 587 41,000  Level Fort Worth Center
Mon 10:06:31 PM 34.1844 -100.1828 103° East 500 575 41,000 -450 Level Fort Worth Center
Mon 10:07:31 PM 34.1400 -100.0156 108° East 506 582 40,100 -950 Descending Fort Worth Center
Mon 10:08:31 PM 34.0994 -99.8564 107° East 506 582 39,100 -1,100 Descending Fort Worth Center
Mon 10:09:31 PM 34.0564 -99.6997 108° East 501 577 37,900 -1,350 Descending Fort Worth Center
Mon 10:10:31 PM 34.0133 -99.5408 108° East 489 563 36,400 -1,450 Descending Fort Worth Center
Mon 10:11:31 PM 33.9719 -99.3844 108° East 489 563 35,000 -700 Descending Fort Worth Center
Mon 10:12:31 PM 33.9264 -99.2283 109° East 489 563 35,000 -1,300 Level Fort Worth Center
Mon 10:13:31 PM 33.8764 -99.0772 112° Southeast 484 557 32,400 -2,650 Descending Fort Worth Center
Mon 10:14:31 PM 33.8342 -98.9514 112° Southeast 490 564 29,700 -2,600 Descending Fort Worth Center
Mon 10:15:31 PM 33.7717 -98.7678 112° Southeast 495 570 27,200 -2,600 Descending Fort Worth Center
Mon 10:16:31 PM 33.7208 -98.6222 113° Southeast 489 563 24,500 -2,400 Descending Fort Worth Center
Mon 10:17:31 PM 33.6722 -98.4767 112° Southeast 477 549 22,400 -2,200 Descending Fort Worth Center
Mon 10:18:31 PM 33.6253 -98.3389 112° Southeast 460 529 20,100 -2,300 Descending Fort Worth Center
Mon 10:19:31 PM 33.5803 -98.2064 112° Southeast 441 507 17,800 -2,100 Descending Fort Worth Center
Mon 10:20:31 PM 33.5331 -98.0764 114° Southeast 435 501 15,900 -2,000 Descending Fort Worth Center
Mon 10:21:31 PM 33.4897 -97.9489 112° Southeast 411 473 13,800 -1,850 Descending Fort Worth Center
Mon 10:22:31 PM 33.4506 -97.8317 112° Southeast 395 455 12,200 -1,350 Descending Fort Worth Center
Mon 10:23:31 PM 33.4111 -97.7244 114° Southeast 364 419 11,100 -1,100 Descending Fort Worth Center
Mon 10:24:31 PM 33.3739 -97.6275 115° Southeast 334 384 10,000 -1,300 Descending Fort Worth Center
Mon 10:25:31 PM 33.3383 -97.5353 115° Southeast 311 358 8,500 -1,350 Descending Fort Worth Center
Mon 10:26:31 PM 33.3031 -97.4508 117° Southeast 306 352 7,300 -1,350 Descending Fort Worth Center
Mon 10:27:31 PM 33.2656 -97.3564 115° Southeast 296 341 5,800 -1,150 Descending Fort Worth Center
Mon 10:28:31 PM 33.2300 -97.2869 121° Southeast 285 328 5,000 -400 Descending Fort Worth Center
Mon 10:29:31 PM 33.1756 -97.2197 134° Southeast 264 304 5,000 -200 Level Fort Worth Center
Mon 10:30:31 PM 33.1336 -97.1728 137° Southeast 235 270 4,600 -684 Descending Fort Worth Center
Mon 10:31:25 PM 33.1000 -97.1167 126° Southeast 201 231 3,700 -1,000 Descending Dallas / Fort Worth TRACON

Login

Don't have an account? Register now (free) for customized features, flight alerts, and more!